Rawlins, WY (82301)

12:33 AM MST on January 31, 2015 (GMT -0700)
Highland Towne | Change Station
CLOSE
Current Station
Personal Weather Station
Location: Rawlins, WY
Elevation: 6831 ft
Nearby Weather Stations

Elev 6831 ft 41.82 °N, 107.22 °W | Updated 7 minutes ago

Overcast
Overcast
30.6 °F
Feels Like 24 °F
N
6.3
Wind Variable Wind from NE

Today
High -- | Low -- °F
--% Chance of Precip.
Yesterday
High -- | Low -- °F
Precip. -- in
7:22 AM 5:22 PM
Waxing Gibbous, 88% visible
Pressure 30.00 in
Visibility 10.0 miles
Clouds Overcast 8500 ft
Windchill 24 °F
Dew Point 24 °F
Humidity 75%
Rainfall 0.00 in
Snow Depth Not available.
UV 0 out of 12
Pollen .10 out of 12
Air Quality Not available.
Flu Activity Not available.
METAR KRWL 310653Z AUTO 06013KT 10SM OVC085 00/M05 A3002 RMK AO2 SLP159 T00001050 400501033

More Conditions Fewer Conditions

Pressure 30.00 in
Visibility 10.0 miles
Clouds Overcast 8500 ft
Windchill 24 °F
Dew Point 24 °F
Humidity 75%
Rainfall 0.00 in
Snow Depth Not available.
UV 0 out of 12
Pollen .10 out of 12
Air Quality Not available.
Flu Activity Not available.
METAR KRWL 310653Z AUTO 06013KT 10SM OVC085 00/M05 A3002 RMK AO2 SLP159 T00001050 400501033

More Conditions Fewer Conditions

10-Day Weather Forecast

Almanac

Astronomy

Jan. 31, 2015 Rise Set
Actual Time
Civil Twilight
Nautical Twilight
Astronomical Twilight
Moon
Length of Visible Light
Length of Day
Tomorrow will be .
, % of the Moon is Illuminated

Today's Extremes

State Highs State Lows

Community

WunderPhotos

Upload Photos

1,792,014 photos uploaded!

WunderBlogs® & News

Nearby

Air Quality

  Air Quality AQ Index Pollutant
Not available.

Snow Depth

Station Depth Elevation

Earthquake Activity

City Distance Mag. Time & Date
Minimum magnitude displayed is 2.5.

Coastal Water Temperatures

Place Temperature

Nearby Weather Stations